Astra — PB4187 — position and weather

sailwx.info

Track history (hours):
 
Tides and Currents Weather Stations Pressure Air Temp Water Temp Dewpoint Dewpoint Depression Visibility Wind Speed Wind Dir Waves Ship Positions

Astra

Last reported at 2016-Dec-02 15:31 UTC. Time now 2016-Dec-02 18:11 UTC.
Position N 51°32' E 007°04'.

Length 110 m.

Type: Tanker. MMSI: 244650752.

Date/timePositionNaut miles runAvg speedWind from/ knotsBaromVisibWave heightAir tempDewpointWater temp
2016-Dec-02 15:31N 51°32' E 007°04'0 0.0
2016-Dec-02 14:33N 51°32' E 007°04'0 0.0
2016-Dec-02 13:33N 51°32' E 007°04'0 0.0
2016-Dec-02 12:34N 51°32' E 007°04'0 0.0
2016-Dec-02 11:33N 51°32' E 007°04'0 0.0
2016-Dec-02 10:33N 51°32' E 007°04'0 0.0
2016-Dec-02 09:33N 51°32' E 007°04'0 0.0
2016-Dec-02 08:33N 51°32' E 007°04'0 0.0
2016-Dec-02 07:33N 51°32' E 007°04'0 0.0
2016-Dec-02 06:34N 51°32' E 007°04'0 0.0
2016-Dec-02 05:34N 51°32' E 007°04'0 0.1
2016-Dec-02 04:33N 51°32' E 007°04'0 0.0
2016-Dec-02 03:33N 51°32' E 007°04'0 0.0
2016-Dec-02 02:33N 51°32' E 007°04'0 0.0
2016-Dec-02 01:33N 51°32' E 007°04'0 0.0
2016-Dec-02 00:33N 51°32' E 007°04'0 0.0
2016-Dec-01 23:34N 51°32' E 007°04'0 0.0
2016-Dec-01 22:33N 51°32' E 007°04'0 0.0
2016-Dec-01 21:33N 51°32' E 007°04'0 0.3
2016-Dec-01 20:33N 51°32' E 007°04'35 2.2
2016-Dec-01 04:20N 50°57' E 006°58'6 7.6
2016-Dec-01 03:33N 50°51' E 007°01'104 4.3
2016-Nov-30 03:24N 49°25' E 008°30'7 7.8
2016-Nov-30 02:33N 49°18' E 008°29'8 7.7
2016-Nov-30 01:33N 49°12' E 008°23'8 7.8
2016-Nov-30 00:33N 49°04' E 008°20'0 0.1
2016-Nov-29 23:33N 49°04' E 008°20'0 0.0
2016-Nov-29 22:33N 49°04' E 008°20'0 0.0
2016-Nov-29 21:33N 49°04' E 008°20'0 0.0
2016-Nov-29 20:33N 49°04' E 008°20'0 0.0
2016-Nov-29 19:33N 49°04' E 008°20'0 0.0
2016-Nov-29 18:33N 49°04' E 008°20'0 0.0
2016-Nov-29 17:33N 49°04' E 008°20'0 0.0
2016-Nov-29 16:33N 49°04' E 008°20'0 0.0
2016-Nov-29 15:33N 49°04' E 008°20'0 0.0
2016-Nov-29 14:33N 49°04' E 008°20'0 0.3
2016-Nov-29 13:33N 49°04' E 008°20'0 0.0
2016-Nov-29 12:33N 49°04' E 008°20'0 0.0
2016-Nov-29 11:33N 49°04' E 008°20'0 0.0
2016-Nov-29 10:33N 49°04' E 008°20'0 0.0
2016-Nov-29 09:33N 49°04' E 008°20'6 5.6
2016-Nov-29 08:33N 48°59' E 008°17'88 4.4
2016-Nov-28 12:18N 47°36' E 007°35'3 3.4
2016-Nov-28 11:33N 47°34' E 007°38'0 0.3
2016-Nov-28 10:33N 47°33' E 007°38'0 0.0
2016-Nov-28 09:33N 47°33' E 007°38'0 0.0
2016-Nov-28 08:33N 47°33' E 007°38'0 0.0
2016-Nov-28 07:33N 47°33' E 007°38'0 0.0
2016-Nov-28 06:33N 47°33' E 007°38'0 0.0
2016-Nov-28 05:33N 47°33' E 007°38'0 0.0
2016-Nov-28 04:33N 47°33' E 007°38'0 0.0
2016-Nov-28 03:33N 47°33' E 007°38'0 0.0
2016-Nov-28 02:33N 47°33' E 007°38'0 0.0
2016-Nov-28 01:33N 47°33' E 007°38'0 0.0
2016-Nov-28 00:33N 47°33' E 007°38'0 0.0
2016-Nov-27 23:33N 47°33' E 007°38'0 0.0
2016-Nov-27 22:33N 47°33' E 007°38'0 0.0
2016-Nov-27 21:33N 47°33' E 007°38'0 0.0
2016-Nov-27 20:33N 47°33' E 007°38'0 0.0
2016-Nov-27 19:33N 47°33' E 007°38'0 0.0
2016-Nov-27 18:33N 47°33' E 007°38'0 0.0
2016-Nov-27 17:33N 47°33' E 007°38'0 0.0
2016-Nov-27 16:33N 47°33' E 007°38'0 0.0
2016-Nov-27 15:33N 47°33' E 007°38'0 0.0
2016-Nov-27 14:33N 47°33' E 007°38'0 0.0
2016-Nov-27 13:33N 47°33' E 007°38'0 0.0
2016-Nov-27 12:33N 47°33' E 007°38'0 0.0
2016-Nov-27 11:33N 47°33' E 007°38'0 0.0
2016-Nov-27 10:33N 47°33' E 007°38'0 0.0
2016-Nov-27 09:33N 47°33' E 007°38'0 0.0
2016-Nov-27 08:33N 47°33' E 007°38'0 0.0
2016-Nov-27 07:33N 47°33' E 007°38'0 0.0
2016-Nov-27 06:33N 47°33' E 007°38'0 0.1
2016-Nov-27 05:33N 47°34' E 007°38'87 3.3
2016-Nov-26 03:08N 48°57' E 008°12'2 3.3
2016-Nov-26 02:24N 48°58' E 008°15'3 3.4
2016-Nov-26 01:33N 49°01' E 008°18'4 3.7
2016-Nov-26 00:33N 49°04' E 008°19'4 3.6
2016-Nov-25 23:33N 49°07' E 008°22'4 3.5
2016-Nov-25 22:33N 49°11' E 008°23'4 3.9
2016-Nov-25 21:33N 49°15' E 008°24'4 3.7
2016-Nov-25 20:32N 49°17' E 008°28'3 3.0
2016-Nov-25 19:26N 49°20' E 008°28'97 3.7
2016-Nov-24 17:13N 50°43' E 007°08'3 4.8
2016-Nov-24 16:33N 50°46' E 007°05'5 4.6
2016-Nov-24 15:31N 50°49' E 007°00'0 0.2
2016-Nov-24 14:30N 50°49' E 007°00'0 0.0
2016-Nov-24 13:24N 50°49' E 007°00'0 0.0
2016-Nov-24 12:33N 50°49' E 007°00'0 0.0
2016-Nov-24 11:32N 50°49' E 007°00'0 0.0
2016-Nov-24 10:31N 50°49' E 007°00'0 0.0
2016-Nov-24 09:30N 50°49' E 007°00'0 0.0
2016-Nov-24 08:33N 50°49' E 007°00'0 0.0
2016-Nov-24 07:29N 50°49' E 007°00'0 0.0
2016-Nov-24 06:32N 50°49' E 007°00'0 0.0
2016-Nov-24 05:30N 50°49' E 007°00'0 0.0
2016-Nov-24 04:32N 50°49' E 007°00'0 0.3
2016-Nov-24 03:30N 50°49' E 006°60'1 0.7
2016-Nov-24 02:33N 50°50' E 006°59'0 0.0
2016-Nov-24 01:33N 50°50' E 006°59'0 0.0
2016-Nov-24 00:33N 50°50' E 006°59'0 0.0
2016-Nov-23 23:31N 50°50' E 006°59'0 0.0
2016-Nov-23 22:33N 50°50' E 006°59'0 0.0
2016-Nov-23 21:33N 50°50' E 006°59'0 0.0
2016-Nov-23 20:31N 50°50' E 006°59'0 0.0
2016-Nov-23 19:33N 50°50' E 006°59'0 0.0
2016-Nov-23 18:33N 50°50' E 006°59'0 0.0
2016-Nov-23 17:33N 50°50' E 006°59'0 0.0
2016-Nov-23 16:32N 50°50' E 006°59'0 0.0
2016-Nov-23 15:33N 50°50' E 006°59'0 0.0
2016-Nov-23 14:18N 50°50' E 006°59'0 0.0
2016-Nov-23 13:30N 50°50' E 006°59'0 0.0
2016-Nov-23 12:29N 50°50' E 006°59'0 0.0
2016-Nov-23 11:29N 50°50' E 006°59'0 0.0
2016-Nov-23 10:31N 50°50' E 006°59'0 0.0
2016-Nov-23 09:30N 50°50' E 006°59'0 0.0
2016-Nov-23 08:33N 50°50' E 006°59'0 0.0
2016-Nov-23 07:27N 50°50' E 006°59'0 0.0
2016-Nov-23 06:33N 50°50' E 006°59'0 0.0
2016-Nov-23 03:31N 50°50' E 006°59'0 0.0
2016-Nov-23 02:33N 50°50' E 006°59'0 0.0
2016-Nov-23 00:31N 50°50' E 006°59'0 0.0
2016-Nov-22 23:33N 50°50' E 006°59'0 0.0
2016-Nov-22 22:33N 50°50' E 006°59'0 0.0
2016-Nov-22 20:32N 50°50' E 006°59'0 0.0
2016-Nov-22 19:33N 50°50' E 006°59'0 0.0
2016-Nov-22 17:29N 50°50' E 006°59'0 0.0
2016-Nov-22 16:33N 50°50' E 006°59'  
Track history (hours):
 
Tides and Currents Weather Stations Pressure Air Temp Water Temp Dewpoint Dewpoint Depression Visibility Wind Speed Wind Dir Waves Ship Positions

Astra

Last reported at 2016-Dec-02 15:31 UTC. Time now 2016-Dec-02 18:11 UTC.
Position N 51°32' E 007°04'.

Length 110 m.

Type: Tanker. MMSI: 244650752.

Date/timePositionNaut miles runAvg speedWind from/ knotsBaromVisibWave heightAir tempDewpointWater temp
2016-Dec-02 15:31N 51°32' E 007°04'0 0.0
2016-Dec-02 14:33N 51°32' E 007°04'0 0.0
2016-Dec-02 13:33N 51°32' E 007°04'0 0.0
2016-Dec-02 12:34N 51°32' E 007°04'0 0.0
2016-Dec-02 11:33N 51°32' E 007°04'0 0.0
2016-Dec-02 10:33N 51°32' E 007°04'0 0.0
2016-Dec-02 09:33N 51°32' E 007°04'0 0.0
2016-Dec-02 08:33N 51°32' E 007°04'0 0.0
2016-Dec-02 07:33N 51°32' E 007°04'0 0.0
2016-Dec-02 06:34N 51°32' E 007°04'0 0.0
2016-Dec-02 05:34N 51°32' E 007°04'0 0.1
2016-Dec-02 04:33N 51°32' E 007°04'0 0.0
2016-Dec-02 03:33N 51°32' E 007°04'0 0.0
2016-Dec-02 02:33N 51°32' E 007°04'0 0.0
2016-Dec-02 01:33N 51°32' E 007°04'0 0.0
2016-Dec-02 00:33N 51°32' E 007°04'0 0.0
2016-Dec-01 23:34N 51°32' E 007°04'0 0.0
2016-Dec-01 22:33N 51°32' E 007°04'0 0.0
2016-Dec-01 21:33N 51°32' E 007°04'0 0.3
2016-Dec-01 20:33N 51°32' E 007°04'35 2.2
2016-Dec-01 04:20N 50°57' E 006°58'6 7.6
2016-Dec-01 03:33N 50°51' E 007°01'104 4.3
2016-Nov-30 03:24N 49°25' E 008°30'7 7.8
2016-Nov-30 02:33N 49°18' E 008°29'8 7.7
2016-Nov-30 01:33N 49°12' E 008°23'8 7.8
2016-Nov-30 00:33N 49°04' E 008°20'0 0.1
2016-Nov-29 23:33N 49°04' E 008°20'0 0.0
2016-Nov-29 22:33N 49°04' E 008°20'0 0.0
2016-Nov-29 21:33N 49°04' E 008°20'0 0.0
2016-Nov-29 20:33N 49°04' E 008°20'0 0.0
2016-Nov-29 19:33N 49°04' E 008°20'0 0.0
2016-Nov-29 18:33N 49°04' E 008°20'0 0.0
2016-Nov-29 17:33N 49°04' E 008°20'0 0.0
2016-Nov-29 16:33N 49°04' E 008°20'0 0.0
2016-Nov-29 15:33N 49°04' E 008°20'0 0.0
2016-Nov-29 14:33N 49°04' E 008°20'0 0.3
2016-Nov-29 13:33N 49°04' E 008°20'0 0.0
2016-Nov-29 12:33N 49°04' E 008°20'0 0.0
2016-Nov-29 11:33N 49°04' E 008°20'0 0.0
2016-Nov-29 10:33N 49°04' E 008°20'0 0.0
2016-Nov-29 09:33N 49°04' E 008°20'6 5.6
2016-Nov-29 08:33N 48°59' E 008°17'88 4.4
2016-Nov-28 12:18N 47°36' E 007°35'3 3.4
2016-Nov-28 11:33N 47°34' E 007°38'0 0.3
2016-Nov-28 10:33N 47°33' E 007°38'0 0.0
2016-Nov-28 09:33N 47°33' E 007°38'0 0.0
2016-Nov-28 08:33N 47°33' E 007°38'0 0.0
2016-Nov-28 07:33N 47°33' E 007°38'0 0.0
2016-Nov-28 06:33N 47°33' E 007°38'0 0.0
2016-Nov-28 05:33N 47°33' E 007°38'0 0.0
2016-Nov-28 04:33N 47°33' E 007°38'0 0.0
2016-Nov-28 03:33N 47°33' E 007°38'0 0.0
2016-Nov-28 02:33N 47°33' E 007°38'0 0.0
2016-Nov-28 01:33N 47°33' E 007°38'0 0.0
2016-Nov-28 00:33N 47°33' E 007°38'0 0.0
2016-Nov-27 23:33N 47°33' E 007°38'0 0.0
2016-Nov-27 22:33N 47°33' E 007°38'0 0.0
2016-Nov-27 21:33N 47°33' E 007°38'0 0.0
2016-Nov-27 20:33N 47°33' E 007°38'0 0.0
2016-Nov-27 19:33N 47°33' E 007°38'0 0.0
2016-Nov-27 18:33N 47°33' E 007°38'0 0.0
2016-Nov-27 17:33N 47°33' E 007°38'0 0.0
2016-Nov-27 16:33N 47°33' E 007°38'0 0.0
2016-Nov-27 15:33N 47°33' E 007°38'0 0.0
2016-Nov-27 14:33N 47°33' E 007°38'0 0.0
2016-Nov-27 13:33N 47°33' E 007°38'0 0.0
2016-Nov-27 12:33N 47°33' E 007°38'0 0.0
2016-Nov-27 11:33N 47°33' E 007°38'0 0.0
2016-Nov-27 10:33N 47°33' E 007°38'0 0.0
2016-Nov-27 09:33N 47°33' E 007°38'0 0.0
2016-Nov-27 08:33N 47°33' E 007°38'0 0.0
2016-Nov-27 07:33N 47°33' E 007°38'0 0.0
2016-Nov-27 06:33N 47°33' E 007°38'0 0.1
2016-Nov-27 05:33N 47°34' E 007°38'87 3.3
2016-Nov-26 03:08N 48°57' E 008°12'2 3.3
2016-Nov-26 02:24N 48°58' E 008°15'3 3.4
2016-Nov-26 01:33N 49°01' E 008°18'4 3.7
2016-Nov-26 00:33N 49°04' E 008°19'4 3.6
2016-Nov-25 23:33N 49°07' E 008°22'4 3.5
2016-Nov-25 22:33N 49°11' E 008°23'4 3.9
2016-Nov-25 21:33N 49°15' E 008°24'4 3.7
2016-Nov-25 20:32N 49°17' E 008°28'3 3.0
2016-Nov-25 19:26N 49°20' E 008°28'97 3.7
2016-Nov-24 17:13N 50°43' E 007°08'3 4.8
2016-Nov-24 16:33N 50°46' E 007°05'5 4.6
2016-Nov-24 15:31N 50°49' E 007°00'0 0.2
2016-Nov-24 14:30N 50°49' E 007°00'0 0.0
2016-Nov-24 13:24N 50°49' E 007°00'0 0.0
2016-Nov-24 12:33N 50°49' E 007°00'0 0.0
2016-Nov-24 11:32N 50°49' E 007°00'0 0.0
2016-Nov-24 10:31N 50°49' E 007°00'0 0.0
2016-Nov-24 09:30N 50°49' E 007°00'0 0.0
2016-Nov-24 08:33N 50°49' E 007°00'0 0.0
2016-Nov-24 07:29N 50°49' E 007°00'0 0.0
2016-Nov-24 06:32N 50°49' E 007°00'0 0.0
2016-Nov-24 05:30N 50°49' E 007°00'0 0.0
2016-Nov-24 04:32N 50°49' E 007°00'0 0.3
2016-Nov-24 03:30N 50°49' E 006°60'1 0.7
2016-Nov-24 02:33N 50°50' E 006°59'0 0.0
2016-Nov-24 01:33N 50°50' E 006°59'0 0.0
2016-Nov-24 00:33N 50°50' E 006°59'0 0.0
2016-Nov-23 23:31N 50°50' E 006°59'0 0.0
2016-Nov-23 22:33N 50°50' E 006°59'0 0.0
2016-Nov-23 21:33N 50°50' E 006°59'0 0.0
2016-Nov-23 20:31N 50°50' E 006°59'0 0.0
2016-Nov-23 19:33N 50°50' E 006°59'0 0.0
2016-Nov-23 18:33N 50°50' E 006°59'0 0.0
2016-Nov-23 17:33N 50°50' E 006°59'0 0.0
2016-Nov-23 16:32N 50°50' E 006°59'0 0.0
2016-Nov-23 15:33N 50°50' E 006°59'0 0.0
2016-Nov-23 14:18N 50°50' E 006°59'0 0.0
2016-Nov-23 13:30N 50°50' E 006°59'0 0.0
2016-Nov-23 12:29N 50°50' E 006°59'0 0.0
2016-Nov-23 11:29N 50°50' E 006°59'0 0.0
2016-Nov-23 10:31N 50°50' E 006°59'0 0.0
2016-Nov-23 09:30N 50°50' E 006°59'0 0.0
2016-Nov-23 08:33N 50°50' E 006°59'0 0.0
2016-Nov-23 07:27N 50°50' E 006°59'0 0.0
2016-Nov-23 06:33N 50°50' E 006°59'0 0.0
2016-Nov-23 03:31N 50°50' E 006°59'0 0.0
2016-Nov-23 02:33N 50°50' E 006°59'0 0.0
2016-Nov-23 00:31N 50°50' E 006°59'0 0.0
2016-Nov-22 23:33N 50°50' E 006°59'0 0.0
2016-Nov-22 22:33N 50°50' E 006°59'0 0.0
2016-Nov-22 20:32N 50°50' E 006°59'0 0.0
2016-Nov-22 19:33N 50°50' E 006°59'0 0.0
2016-Nov-22 17:29N 50°50' E 006°59'0 0.0
2016-Nov-22 16:33N 50°50' E 006°59'  

Dump ship's entire track history